sensor_id;sensor_type;location;lat;lon;timestamp;P1;durP1;ratioP1;P2;durP2;ratioP2
77298;SDS011;66361;52.034;20.656;2023-05-07T00:02:25;7.10;;;4.43;;
77298;SDS011;66361;52.034;20.656;2023-05-07T00:06:28;7.05;;;4.50;;
77298;SDS011;66361;52.034;20.656;2023-05-07T00:10:31;7.88;;;4.70;;
77298;SDS011;66361;52.034;20.656;2023-05-07T00:14:36;8.07;;;4.53;;
77298;SDS011;66361;52.034;20.656;2023-05-07T00:18:39;8.30;;;4.53;;
77298;SDS011;66361;52.034;20.656;2023-05-07T00:22:42;6.70;;;4.53;;
77298;SDS011;66361;52.034;20.656;2023-05-07T00:26:45;7.07;;;4.13;;
77298;SDS011;66361;52.034;20.656;2023-05-07T00:30:49;6.10;;;4.25;;
77298;SDS011;66361;52.034;20.656;2023-05-07T00:34:52;6.20;;;4.60;;
77298;SDS011;66361;52.034;20.656;2023-05-07T00:38:56;6.13;;;4.30;;
77298;SDS011;66361;52.034;20.656;2023-05-07T00:43:01;6.30;;;4.60;;
77298;SDS011;66361;52.034;20.656;2023-05-07T00:47:06;5.88;;;3.97;;
77298;SDS011;66361;52.034;20.656;2023-05-07T00:51:09;6.97;;;3.75;;
77298;SDS011;66361;52.034;20.656;2023-05-07T00:55:13;6.97;;;4.65;;
77298;SDS011;66361;52.034;20.656;2023-05-07T00:59:16;7.50;;;5.05;;
77298;SDS011;66361;52.034;20.656;2023-05-07T01:03:26;5.65;;;4.05;;
77298;SDS011;66361;52.034;20.656;2023-05-07T01:07:29;8.50;;;7.53;;
77298;SDS011;66361;52.034;20.656;2023-05-07T01:11:33;6.03;;;3.05;;
77298;SDS011;66361;52.034;20.656;2023-05-07T01:15:37;4.80;;;3.80;;
77298;SDS011;66361;52.034;20.656;2023-05-07T01:19:46;3.95;;;2.83;;
77298;SDS011;66361;52.034;20.656;2023-05-07T01:23:51;6.75;;;5.00;;
77298;SDS011;66361;52.034;20.656;2023-05-07T01:27:55;5.55;;;4.53;;
77298;SDS011;66361;52.034;20.656;2023-05-07T01:32:00;6.35;;;4.35;;
77298;SDS011;66361;52.034;20.656;2023-05-07T01:36:05;6.05;;;4.45;;
77298;SDS011;66361;52.034;20.656;2023-05-07T01:40:12;5.28;;;4.05;;
77298;SDS011;66361;52.034;20.656;2023-05-07T01:44:16;6.03;;;4.63;;
77298;SDS011;66361;52.034;20.656;2023-05-07T01:48:20;5.18;;;4.30;;
77298;SDS011;66361;52.034;20.656;2023-05-07T01:52:24;7.90;;;4.40;;
77298;SDS011;66361;52.034;20.656;2023-05-07T01:56:29;5.63;;;3.58;;
77298;SDS011;66361;52.034;20.656;2023-05-07T02:00:31;6.55;;;4.38;;
77298;SDS011;66361;52.034;20.656;2023-05-07T02:04:35;5.22;;;4.35;;
77298;SDS011;66361;52.034;20.656;2023-05-07T02:08:37;5.38;;;4.28;;
77298;SDS011;66361;52.034;20.656;2023-05-07T02:12:42;7.32;;;5.05;;
77298;SDS011;66361;52.034;20.656;2023-05-07T02:16:45;6.60;;;4.07;;
77298;SDS011;66361;52.034;20.656;2023-05-07T02:24:52;6.28;;;4.15;;
77298;SDS011;66361;52.034;20.656;2023-05-07T02:28:56;3.85;;;2.80;;
77298;SDS011;66361;52.034;20.656;2023-05-07T02:32:59;5.35;;;3.78;;
77298;SDS011;66361;52.034;20.656;2023-05-07T02:37:02;6.03;;;4.32;;
77298;SDS011;66361;52.034;20.656;2023-05-07T02:41:05;4.90;;;3.35;;
77298;SDS011;66361;52.034;20.656;2023-05-07T02:45:10;5.20;;;4.40;;
77298;SDS011;66361;52.034;20.656;2023-05-07T02:49:13;4.57;;;3.83;;
77298;SDS011;66361;52.034;20.656;2023-05-07T02:53:16;5.22;;;3.30;;
77298;SDS011;66361;52.034;20.656;2023-05-07T02:57:19;5.47;;;3.88;;
77298;SDS011;66361;52.034;20.656;2023-05-07T03:01:24;5.53;;;4.10;;
77298;SDS011;66361;52.034;20.656;2023-05-07T03:05:27;7.53;;;4.25;;
77298;SDS011;66361;52.034;20.656;2023-05-07T03:09:30;5.57;;;3.80;;
77298;SDS011;66361;52.034;20.656;2023-05-07T03:13:34;4.68;;;3.35;;
77298;SDS011;66361;52.034;20.656;2023-05-07T03:21:41;5.35;;;3.42;;
77298;SDS011;66361;52.034;20.656;2023-05-07T03:25:45;4.18;;;3.60;;
77298;SDS011;66361;52.034;20.656;2023-05-07T03:29:48;4.32;;;3.10;;
77298;SDS011;66361;52.034;20.656;2023-05-07T03:33:52;6.72;;;4.25;;
77298;SDS011;66361;52.034;20.656;2023-05-07T03:37:56;3.97;;;3.28;;
77298;SDS011;66361;52.034;20.656;2023-05-07T03:41:59;6.35;;;4.43;;
77298;SDS011;66361;52.034;20.656;2023-05-07T03:46:03;4.40;;;4.00;;
77298;SDS011;66361;52.034;20.656;2023-05-07T03:50:08;3.45;;;2.85;;
77298;SDS011;66361;52.034;20.656;2023-05-07T03:54:13;3.90;;;3.42;;
77298;SDS011;66361;52.034;20.656;2023-05-07T03:58:15;5.40;;;3.45;;
77298;SDS011;66361;52.034;20.656;2023-05-07T04:02:20;3.90;;;3.10;;
77298;SDS011;66361;52.034;20.656;2023-05-07T04:06:25;4.25;;;3.05;;
77298;SDS011;66361;52.034;20.656;2023-05-07T04:10:29;4.43;;;3.13;;
77298;SDS011;66361;52.034;20.656;2023-05-07T04:14:34;3.50;;;3.10;;
77298;SDS011;66361;52.034;20.656;2023-05-07T04:18:37;2.88;;;2.58;;
77298;SDS011;66361;52.034;20.656;2023-05-07T04:22:42;4.28;;;3.55;;
77298;SDS011;66361;52.034;20.656;2023-05-07T04:26:45;3.92;;;3.45;;
77298;SDS011;66361;52.034;20.656;2023-05-07T04:30:48;3.53;;;3.00;;
77298;SDS011;66361;52.034;20.656;2023-05-07T04:34:51;3.80;;;3.25;;
77298;SDS011;66361;52.034;20.656;2023-05-07T04:38:55;4.10;;;3.10;;
77298;SDS011;66361;52.034;20.656;2023-05-07T04:42:58;3.33;;;3.00;;
77298;SDS011;66361;52.034;20.656;2023-05-07T04:47:01;3.60;;;3.00;;
77298;SDS011;66361;52.034;20.656;2023-05-07T04:51:04;3.72;;;2.97;;
77298;SDS011;66361;52.034;20.656;2023-05-07T04:59:12;4.60;;;3.38;;
77298;SDS011;66361;52.034;20.656;2023-05-07T05:07:18;3.30;;;2.47;;
77298;SDS011;66361;52.034;20.656;2023-05-07T05:11:23;4.55;;;3.40;;
77298;SDS011;66361;52.034;20.656;2023-05-07T05:15:26;4.80;;;3.70;;
77298;SDS011;66361;52.034;20.656;2023-05-07T05:19:31;5.93;;;3.50;;
77298;SDS011;66361;52.034;20.656;2023-05-07T05:23:34;4.75;;;3.35;;
77298;SDS011;66361;52.034;20.656;2023-05-07T05:27:38;5.25;;;3.60;;
77298;SDS011;66361;52.034;20.656;2023-05-07T05:31:41;3.47;;;2.60;;
77298;SDS011;66361;52.034;20.656;2023-05-07T05:35:44;4.72;;;3.65;;
77298;SDS011;66361;52.034;20.656;2023-05-07T05:39:47;4.75;;;3.38;;
77298;SDS011;66361;52.034;20.656;2023-05-07T05:47:55;3.22;;;2.83;;
77298;SDS011;66361;52.034;20.656;2023-05-07T05:51:58;4.43;;;3.53;;
77298;SDS011;66361;52.034;20.656;2023-05-07T05:56:01;3.00;;;2.70;;
77298;SDS011;66361;52.034;20.656;2023-05-07T06:00:07;3.28;;;2.65;;
77298;SDS011;66361;52.034;20.656;2023-05-07T06:04:11;3.70;;;2.88;;
77298;SDS011;66361;52.034;20.656;2023-05-07T06:08:14;3.88;;;2.67;;
77298;SDS011;66361;52.034;20.656;2023-05-07T06:12:18;3.25;;;2.67;;
77298;SDS011;66361;52.034;20.656;2023-05-07T06:16:22;3.35;;;2.90;;
77298;SDS011;66361;52.034;20.656;2023-05-07T06:20:27;3.20;;;2.90;;
77298;SDS011;66361;52.034;20.656;2023-05-07T06:24:32;4.05;;;2.97;;
77298;SDS011;66361;52.034;20.656;2023-05-07T06:28:35;3.97;;;2.88;;
77298;SDS011;66361;52.034;20.656;2023-05-07T06:32:41;3.40;;;2.90;;
77298;SDS011;66361;52.034;20.656;2023-05-07T06:36:44;3.50;;;2.92;;
77298;SDS011;66361;52.034;20.656;2023-05-07T06:40:48;3.95;;;2.83;;
77298;SDS011;66361;52.034;20.656;2023-05-07T06:44:51;2.75;;;2.30;;
77298;SDS011;66361;52.034;20.656;2023-05-07T06:48:55;3.00;;;2.55;;
77298;SDS011;66361;52.034;20.656;2023-05-07T06:52:59;3.38;;;2.13;;
77298;SDS011;66361;52.034;20.656;2023-05-07T07:01:05;2.55;;;2.03;;
77298;SDS011;66361;52.034;20.656;2023-05-07T07:05:09;3.28;;;2.47;;
77298;SDS011;66361;52.034;20.656;2023-05-07T07:09:12;2.67;;;2.40;;
77298;SDS011;66361;52.034;20.656;2023-05-07T07:13:15;2.42;;;2.22;;
77298;SDS011;66361;52.034;20.656;2023-05-07T07:17:18;3.70;;;2.63;;
77298;SDS011;66361;52.034;20.656;2023-05-07T07:21:23;3.25;;;2.45;;
77298;SDS011;66361;52.034;20.656;2023-05-07T07:25:26;2.33;;;1.95;;
77298;SDS011;66361;52.034;20.656;2023-05-07T07:29:29;3.63;;;2.08;;
77298;SDS011;66361;52.034;20.656;2023-05-07T07:33:32;2.50;;;1.90;;
77298;SDS011;66361;52.034;20.656;2023-05-07T07:37:36;2.80;;;1.88;;
77298;SDS011;66361;52.034;20.656;2023-05-07T07:41:39;2.83;;;2.33;;
77298;SDS011;66361;52.034;20.656;2023-05-07T07:45:42;2.63;;;2.15;;
77298;SDS011;66361;52.034;20.656;2023-05-07T07:49:47;3.63;;;1.83;;
77298;SDS011;66361;52.034;20.656;2023-05-07T07:53:51;2.90;;;2.30;;
77298;SDS011;66361;52.034;20.656;2023-05-07T07:57:54;6.43;;;2.42;;
77298;SDS011;66361;52.034;20.656;2023-05-07T08:05:59;4.10;;;2.40;;
77298;SDS011;66361;52.034;20.656;2023-05-07T08:10:04;3.47;;;2.67;;
77298;SDS011;66361;52.034;20.656;2023-05-07T08:14:08;2.17;;;1.80;;
77298;SDS011;66361;52.034;20.656;2023-05-07T08:18:10;4.78;;;3.83;;
77298;SDS011;66361;52.034;20.656;2023-05-07T08:22:13;2.67;;;2.15;;
77298;SDS011;66361;52.034;20.656;2023-05-07T08:26:17;3.20;;;2.35;;
77298;SDS011;66361;52.034;20.656;2023-05-07T08:30:21;2.50;;;1.85;;
77298;SDS011;66361;52.034;20.656;2023-05-07T08:34:24;3.03;;;2.22;;
77298;SDS011;66361;52.034;20.656;2023-05-07T08:38:27;4.32;;;1.73;;
77298;SDS011;66361;52.034;20.656;2023-05-07T08:42:32;2.97;;;2.30;;
77298;SDS011;66361;52.034;20.656;2023-05-07T08:46:39;2.10;;;1.90;;
77298;SDS011;66361;52.034;20.656;2023-05-07T08:50:44;2.72;;;2.20;;
77298;SDS011;66361;52.034;20.656;2023-05-07T08:54:47;2.85;;;2.20;;
77298;SDS011;66361;52.034;20.656;2023-05-07T08:58:51;3.03;;;2.40;;
77298;SDS011;66361;52.034;20.656;2023-05-07T09:02:57;3.05;;;2.53;;
77298;SDS011;66361;52.034;20.656;2023-05-07T09:07:00;2.70;;;2.50;;
77298;SDS011;66361;52.034;20.656;2023-05-07T09:11:06;3.72;;;2.60;;
77298;SDS011;66361;52.034;20.656;2023-05-07T09:19:14;3.10;;;2.13;;
77298;SDS011;66361;52.034;20.656;2023-05-07T09:23:19;2.92;;;2.63;;
77298;SDS011;66361;52.034;20.656;2023-05-07T09:27:23;2.88;;;1.95;;
77298;SDS011;66361;52.034;20.656;2023-05-07T09:31:27;2.55;;;2.13;;
77298;SDS011;66361;52.034;20.656;2023-05-07T09:35:30;3.60;;;3.30;;
77298;SDS011;66361;52.034;20.656;2023-05-07T09:39:40;3.25;;;2.50;;
77298;SDS011;66361;52.034;20.656;2023-05-07T09:47:48;5.95;;;3.58;;
77298;SDS011;66361;52.034;20.656;2023-05-07T09:51:52;4.22;;;2.90;;
77298;SDS011;66361;52.034;20.656;2023-05-07T09:55:56;4.07;;;3.30;;
77298;SDS011;66361;52.034;20.656;2023-05-07T10:00:04;3.38;;;2.90;;
77298;SDS011;66361;52.034;20.656;2023-05-07T10:04:11;3.03;;;2.65;;
77298;SDS011;66361;52.034;20.656;2023-05-07T10:08:14;3.30;;;2.45;;
77298;SDS011;66361;52.034;20.656;2023-05-07T10:16:20;2.85;;;2.22;;
77298;SDS011;66361;52.034;20.656;2023-05-07T10:20:25;6.00;;;2.58;;
77298;SDS011;66361;52.034;20.656;2023-05-07T10:24:31;3.70;;;2.78;;
77298;SDS011;66361;52.034;20.656;2023-05-07T10:28:36;4.13;;;2.80;;
77298;SDS011;66361;52.034;20.656;2023-05-07T10:32:42;4.85;;;2.67;;
77298;SDS011;66361;52.034;20.656;2023-05-07T10:36:53;3.45;;;3.00;;
77298;SDS011;66361;52.034;20.656;2023-05-07T10:40:57;3.35;;;2.35;;
77298;SDS011;66361;52.034;20.656;2023-05-07T10:45:11;3.15;;;2.40;;
77298;SDS011;66361;52.034;20.656;2023-05-07T10:49:15;3.35;;;2.80;;
77298;SDS011;66361;52.034;20.656;2023-05-07T10:53:25;3.50;;;2.90;;
77298;SDS011;66361;52.034;20.656;2023-05-07T10:57:32;4.95;;;3.08;;
77298;SDS011;66361;52.034;20.656;2023-05-07T11:06:09;4.40;;;2.85;;
77298;SDS011;66361;52.034;20.656;2023-05-07T11:10:17;3.03;;;2.72;;
77298;SDS011;66361;52.034;20.656;2023-05-07T11:18:46;3.60;;;2.72;;
77298;SDS011;66361;52.034;20.656;2023-05-07T11:22:51;4.68;;;3.05;;
77298;SDS011;66361;52.034;20.656;2023-05-07T11:26:57;4.28;;;2.85;;
77298;SDS011;66361;52.034;20.656;2023-05-07T11:31:01;4.25;;;2.80;;
77298;SDS011;66361;52.034;20.656;2023-05-07T11:35:06;4.22;;;3.30;;
77298;SDS011;66361;52.034;20.656;2023-05-07T11:39:23;3.72;;;2.95;;
77298;SDS011;66361;52.034;20.656;2023-05-07T11:43:28;3.30;;;2.67;;
77298;SDS011;66361;52.034;20.656;2023-05-07T11:47:37;4.30;;;3.28;;
77298;SDS011;66361;52.034;20.656;2023-05-07T11:51:44;3.85;;;2.95;;
77298;SDS011;66361;52.034;20.656;2023-05-07T11:55:50;3.70;;;2.97;;
77298;SDS011;66361;52.034;20.656;2023-05-07T11:59:55;4.82;;;3.00;;
77298;SDS011;66361;52.034;20.656;2023-05-07T12:04:00;3.28;;;2.83;;
77298;SDS011;66361;52.034;20.656;2023-05-07T12:08:06;3.88;;;2.90;;
77298;SDS011;66361;52.034;20.656;2023-05-07T12:12:09;2.97;;;2.20;;
77298;SDS011;66361;52.034;20.656;2023-05-07T12:16:21;6.22;;;2.28;;
77298;SDS011;66361;52.034;20.656;2023-05-07T12:20:29;4.18;;;3.25;;
77298;SDS011;66361;52.034;20.656;2023-05-07T12:24:42;4.00;;;2.85;;
77298;SDS011;66361;52.034;20.656;2023-05-07T12:28:46;6.97;;;2.83;;
77298;SDS011;66361;52.034;20.656;2023-05-07T12:36:56;3.95;;;2.60;;
77298;SDS011;66361;52.034;20.656;2023-05-07T12:41:00;4.13;;;2.75;;
77298;SDS011;66361;52.034;20.656;2023-05-07T12:45:12;3.28;;;2.80;;
77298;SDS011;66361;52.034;20.656;2023-05-07T12:53:26;5.40;;;2.92;;
77298;SDS011;66361;52.034;20.656;2023-05-07T12:57:29;3.67;;;2.80;;
77298;SDS011;66361;52.034;20.656;2023-05-07T13:01:33;3.78;;;2.80;;
77298;SDS011;66361;52.034;20.656;2023-05-07T13:05:38;4.93;;;3.65;;
77298;SDS011;66361;52.034;20.656;2023-05-07T13:09:41;5.43;;;2.67;;
77298;SDS011;66361;52.034;20.656;2023-05-07T13:13:44;3.80;;;2.67;;
77298;SDS011;66361;52.034;20.656;2023-05-07T13:17:48;3.60;;;2.45;;
77298;SDS011;66361;52.034;20.656;2023-05-07T13:21:52;2.40;;;2.20;;
77298;SDS011;66361;52.034;20.656;2023-05-07T13:25:55;2.58;;;2.38;;
77298;SDS011;66361;52.034;20.656;2023-05-07T13:30:00;3.22;;;2.47;;
77298;SDS011;66361;52.034;20.656;2023-05-07T13:34:03;7.03;;;2.80;;
77298;SDS011;66361;52.034;20.656;2023-05-07T13:38:08;3.92;;;2.75;;
77298;SDS011;66361;52.034;20.656;2023-05-07T13:42:11;2.40;;;2.17;;
77298;SDS011;66361;52.034;20.656;2023-05-07T13:46:16;3.25;;;2.65;;
77298;SDS011;66361;52.034;20.656;2023-05-07T13:50:29;4.78;;;2.90;;
77298;SDS011;66361;52.034;20.656;2023-05-07T13:54:33;3.63;;;2.95;;
77298;SDS011;66361;52.034;20.656;2023-05-07T13:58:36;4.40;;;2.38;;
77298;SDS011;66361;52.034;20.656;2023-05-07T14:02:59;3.63;;;2.03;;
77298;SDS011;66361;52.034;20.656;2023-05-07T14:07:01;2.97;;;2.22;;
77298;SDS011;66361;52.034;20.656;2023-05-07T14:11:06;4.07;;;2.60;;
77298;SDS011;66361;52.034;20.656;2023-05-07T14:15:09;4.03;;;2.28;;
77298;SDS011;66361;52.034;20.656;2023-05-07T14:19:12;2.85;;;2.65;;
77298;SDS011;66361;52.034;20.656;2023-05-07T14:23:15;2.40;;;2.20;;
77298;SDS011;66361;52.034;20.656;2023-05-07T14:27:21;2.80;;;2.17;;
77298;SDS011;66361;52.034;20.656;2023-05-07T14:31:24;5.50;;;2.70;;
77298;SDS011;66361;52.034;20.656;2023-05-07T14:35:28;5.25;;;2.53;;
77298;SDS011;66361;52.034;20.656;2023-05-07T14:39:31;3.80;;;2.55;;
77298;SDS011;66361;52.034;20.656;2023-05-07T14:43:35;6.38;;;2.55;;
77298;SDS011;66361;52.034;20.656;2023-05-07T14:47:39;2.72;;;2.03;;
77298;SDS011;66361;52.034;20.656;2023-05-07T14:51:42;2.92;;;2.05;;
77298;SDS011;66361;52.034;20.656;2023-05-07T14:55:46;3.08;;;2.35;;
77298;SDS011;66361;52.034;20.656;2023-05-07T14:59:51;2.65;;;2.00;;
77298;SDS011;66361;52.034;20.656;2023-05-07T15:03:54;2.65;;;2.08;;
77298;SDS011;66361;52.034;20.656;2023-05-07T15:07:57;2.80;;;2.40;;
77298;SDS011;66361;52.034;20.656;2023-05-07T15:12:00;2.95;;;2.30;;
77298;SDS011;66361;52.034;20.656;2023-05-07T15:20:07;2.88;;;1.60;;
77298;SDS011;66361;52.034;20.656;2023-05-07T15:24:13;2.83;;;2.40;;
77298;SDS011;66361;52.034;20.656;2023-05-07T15:28:18;3.47;;;2.17;;
77298;SDS011;66361;52.034;20.656;2023-05-07T15:32:22;2.60;;;2.00;;
77298;SDS011;66361;52.034;20.656;2023-05-07T15:36:26;2.63;;;2.25;;
77298;SDS011;66361;52.034;20.656;2023-05-07T15:40:29;3.10;;;2.30;;
77298;SDS011;66361;52.034;20.656;2023-05-07T15:44:32;2.58;;;2.00;;
77298;SDS011;66361;52.034;20.656;2023-05-07T15:48:37;2.65;;;2.20;;
77298;SDS011;66361;52.034;20.656;2023-05-07T15:52:41;3.63;;;2.33;;
77298;SDS011;66361;52.034;20.656;2023-05-07T15:56:46;4.35;;;2.70;;
77298;SDS011;66361;52.034;20.656;2023-05-07T16:00:49;2.83;;;2.30;;
77298;SDS011;66361;52.034;20.656;2023-05-07T16:08:56;3.58;;;2.50;;
77298;SDS011;66361;52.034;20.656;2023-05-07T16:17:03;3.17;;;2.10;;
77298;SDS011;66361;52.034;20.656;2023-05-07T16:21:08;3.15;;;2.28;;
77298;SDS011;66361;52.034;20.656;2023-05-07T16:25:12;2.60;;;1.80;;
77298;SDS011;66361;52.034;20.656;2023-05-07T16:29:15;3.35;;;2.42;;
77298;SDS011;66361;52.034;20.656;2023-05-07T16:33:24;2.60;;;2.17;;
77298;SDS011;66361;52.034;20.656;2023-05-07T16:41:31;2.67;;;2.22;;
77298;SDS011;66361;52.034;20.656;2023-05-07T16:45:34;2.80;;;2.42;;
77298;SDS011;66361;52.034;20.656;2023-05-07T16:53:41;4.03;;;2.22;;
77298;SDS011;66361;52.034;20.656;2023-05-07T16:57:44;7.22;;;2.88;;
77298;SDS011;66361;52.034;20.656;2023-05-07T17:01:47;3.40;;;2.50;;
77298;SDS011;66361;52.034;20.656;2023-05-07T17:05:52;4.15;;;2.72;;
77298;SDS011;66361;52.034;20.656;2023-05-07T17:09:57;4.93;;;3.15;;
77298;SDS011;66361;52.034;20.656;2023-05-07T17:14:00;4.00;;;2.70;;
77298;SDS011;66361;52.034;20.656;2023-05-07T17:18:05;3.47;;;2.70;;
77298;SDS011;66361;52.034;20.656;2023-05-07T17:22:09;5.25;;;4.10;;
77298;SDS011;66361;52.034;20.656;2023-05-07T17:30:16;4.75;;;2.88;;
77298;SDS011;66361;52.034;20.656;2023-05-07T17:34:19;5.55;;;3.40;;
77298;SDS011;66361;52.034;20.656;2023-05-07T17:38:22;3.97;;;3.17;;
77298;SDS011;66361;52.034;20.656;2023-05-07T17:42:28;5.82;;;4.30;;
77298;SDS011;66361;52.034;20.656;2023-05-07T17:46:33;5.68;;;3.67;;
77298;SDS011;66361;52.034;20.656;2023-05-07T17:50:36;4.85;;;3.35;;
77298;SDS011;66361;52.034;20.656;2023-05-07T17:58:44;5.53;;;3.80;;
77298;SDS011;66361;52.034;20.656;2023-05-07T18:02:59;4.57;;;3.78;;
77298;SDS011;66361;52.034;20.656;2023-05-07T18:07:02;4.93;;;4.38;;
77298;SDS011;66361;52.034;20.656;2023-05-07T18:11:05;6.85;;;4.95;;
77298;SDS011;66361;52.034;20.656;2023-05-07T18:15:09;5.93;;;5.32;;
77298;SDS011;66361;52.034;20.656;2023-05-07T18:19:13;7.45;;;6.63;;
77298;SDS011;66361;52.034;20.656;2023-05-07T18:23:16;9.95;;;6.28;;
77298;SDS011;66361;52.034;20.656;2023-05-07T18:27:18;8.82;;;6.30;;
77298;SDS011;66361;52.034;20.656;2023-05-07T18:31:23;9.40;;;5.97;;
77298;SDS011;66361;52.034;20.656;2023-05-07T18:35:26;11.82;;;7.63;;
77298;SDS011;66361;52.034;20.656;2023-05-07T18:39:29;13.30;;;7.22;;
77298;SDS011;66361;52.034;20.656;2023-05-07T18:47:37;10.50;;;8.23;;
77298;SDS011;66361;52.034;20.656;2023-05-07T18:51:40;12.10;;;8.23;;
77298;SDS011;66361;52.034;20.656;2023-05-07T18:55:47;13.85;;;9.43;;
77298;SDS011;66361;52.034;20.656;2023-05-07T18:59:51;12.70;;;8.90;;
77298;SDS011;66361;52.034;20.656;2023-05-07T19:03:56;14.75;;;8.90;;
77298;SDS011;66361;52.034;20.656;2023-05-07T19:07:59;12.75;;;8.32;;
77298;SDS011;66361;52.034;20.656;2023-05-07T19:12:02;12.48;;;8.23;;
77298;SDS011;66361;52.034;20.656;2023-05-07T19:16:06;13.00;;;7.78;;
77298;SDS011;66361;52.034;20.656;2023-05-07T19:20:14;14.48;;;8.10;;
77298;SDS011;66361;52.034;20.656;2023-05-07T19:24:17;16.73;;;8.50;;
77298;SDS011;66361;52.034;20.656;2023-05-07T19:28:20;13.35;;;9.45;;
77298;SDS011;66361;52.034;20.656;2023-05-07T19:32:22;17.17;;;10.18;;
77298;SDS011;66361;52.034;20.656;2023-05-07T19:36:27;19.02;;;11.63;;
77298;SDS011;66361;52.034;20.656;2023-05-07T19:40:31;16.45;;;12.50;;
77298;SDS011;66361;52.034;20.656;2023-05-07T19:44:34;16.10;;;9.13;;
77298;SDS011;66361;52.034;20.656;2023-05-07T19:48:38;15.48;;;10.10;;
77298;SDS011;66361;52.034;20.656;2023-05-07T19:52:42;17.45;;;11.02;;
77298;SDS011;66361;52.034;20.656;2023-05-07T19:56:45;14.18;;;10.23;;
77298;SDS011;66361;52.034;20.656;2023-05-07T20:00:48;12.77;;;9.23;;
77298;SDS011;66361;52.034;20.656;2023-05-07T20:04:51;12.82;;;8.75;;
77298;SDS011;66361;52.034;20.656;2023-05-07T20:08:56;12.60;;;9.43;;
77298;SDS011;66361;52.034;20.656;2023-05-07T20:13:00;16.83;;;9.85;;
77298;SDS011;66361;52.034;20.656;2023-05-07T20:17:05;13.98;;;10.25;;
77298;SDS011;66361;52.034;20.656;2023-05-07T20:21:08;16.63;;;11.07;;
77298;SDS011;66361;52.034;20.656;2023-05-07T20:25:12;19.65;;;12.20;;
77298;SDS011;66361;52.034;20.656;2023-05-07T20:29:16;33.92;;;22.13;;
77298;SDS011;66361;52.034;20.656;2023-05-07T20:33:18;34.70;;;21.20;;
77298;SDS011;66361;52.034;20.656;2023-05-07T20:37:22;30.63;;;19.15;;
77298;SDS011;66361;52.034;20.656;2023-05-07T20:41:34;26.10;;;16.92;;
77298;SDS011;66361;52.034;20.656;2023-05-07T20:45:37;21.90;;;14.00;;
77298;SDS011;66361;52.034;20.656;2023-05-07T20:49:40;22.48;;;14.80;;
77298;SDS011;66361;52.034;20.656;2023-05-07T20:53:44;22.70;;;15.50;;
77298;SDS011;66361;52.034;20.656;2023-05-07T20:57:49;24.23;;;15.23;;
77298;SDS011;66361;52.034;20.656;2023-05-07T21:01:55;27.10;;;18.02;;
77298;SDS011;66361;52.034;20.656;2023-05-07T21:05:58;29.50;;;19.35;;
77298;SDS011;66361;52.034;20.656;2023-05-07T21:10:06;27.88;;;17.15;;
77298;SDS011;66361;52.034;20.656;2023-05-07T21:14:12;30.88;;;18.92;;
77298;SDS011;66361;52.034;20.656;2023-05-07T21:18:16;27.08;;;17.38;;
77298;SDS011;66361;52.034;20.656;2023-05-07T21:22:20;30.65;;;18.55;;
77298;SDS011;66361;52.034;20.656;2023-05-07T21:26:23;34.90;;;20.00;;
77298;SDS011;66361;52.034;20.656;2023-05-07T21:30:28;38.67;;;21.63;;
77298;SDS011;66361;52.034;20.656;2023-05-07T21:34:33;39.42;;;22.77;;
77298;SDS011;66361;52.034;20.656;2023-05-07T21:38:40;51.35;;;30.77;;
77298;SDS011;66361;52.034;20.656;2023-05-07T21:42:43;52.90;;;33.83;;
77298;SDS011;66361;52.034;20.656;2023-05-07T21:46:47;48.20;;;26.30;;
77298;SDS011;66361;52.034;20.656;2023-05-07T21:55:00;36.75;;;22.00;;
77298;SDS011;66361;52.034;20.656;2023-05-07T21:59:03;36.38;;;20.95;;
77298;SDS011;66361;52.034;20.656;2023-05-07T22:03:07;30.67;;;17.75;;
77298;SDS011;66361;52.034;20.656;2023-05-07T22:07:10;28.98;;;16.60;;
77298;SDS011;66361;52.034;20.656;2023-05-07T22:11:15;28.38;;;15.60;;
77298;SDS011;66361;52.034;20.656;2023-05-07T22:15:20;26.58;;;15.15;;
77298;SDS011;66361;52.034;20.656;2023-05-07T22:19:26;24.02;;;14.18;;
77298;SDS011;66361;52.034;20.656;2023-05-07T22:23:29;22.20;;;13.55;;
77298;SDS011;66361;52.034;20.656;2023-05-07T22:27:33;19.50;;;12.13;;
77298;SDS011;66361;52.034;20.656;2023-05-07T22:31:36;19.83;;;13.02;;
77298;SDS011;66361;52.034;20.656;2023-05-07T22:35:42;21.25;;;12.73;;
77298;SDS011;66361;52.034;20.656;2023-05-07T22:39:45;21.83;;;13.43;;
77298;SDS011;66361;52.034;20.656;2023-05-07T22:43:51;19.95;;;12.20;;
77298;SDS011;66361;52.034;20.656;2023-05-07T22:47:54;20.15;;;12.27;;
77298;SDS011;66361;52.034;20.656;2023-05-07T22:51:59;17.48;;;11.38;;
77298;SDS011;66361;52.034;20.656;2023-05-07T22:56:03;21.52;;;12.20;;
77298;SDS011;66361;52.034;20.656;2023-05-07T23:00:07;18.58;;;11.10;;
77298;SDS011;66361;52.034;20.656;2023-05-07T23:04:12;18.88;;;11.35;;
77298;SDS011;66361;52.034;20.656;2023-05-07T23:08:16;19.63;;;12.20;;
77298;SDS011;66361;52.034;20.656;2023-05-07T23:12:18;25.67;;;14.70;;
77298;SDS011;66361;52.034;20.656;2023-05-07T23:16:21;29.63;;;18.52;;
77298;SDS011;66361;52.034;20.656;2023-05-07T23:20:24;35.83;;;18.27;;
77298;SDS011;66361;52.034;20.656;2023-05-07T23:24:29;35.88;;;20.20;;
77298;SDS011;66361;52.034;20.656;2023-05-07T23:28:32;43.42;;;24.27;;
77298;SDS011;66361;52.034;20.656;2023-05-07T23:32:43;35.03;;;21.08;;
77298;SDS011;66361;52.034;20.656;2023-05-07T23:36:49;34.17;;;19.52;;
77298;SDS011;66361;52.034;20.656;2023-05-07T23:40:54;33.92;;;17.45;;
77298;SDS011;66361;52.034;20.656;2023-05-07T23:44:58;29.20;;;17.33;;
77298;SDS011;66361;52.034;20.656;2023-05-07T23:49:02;26.13;;;15.68;;
77298;SDS011;66361;52.034;20.656;2023-05-07T23:53:05;26.83;;;15.55;;
77298;SDS011;66361;52.034;20.656;2023-05-07T23:57:10;31.33;;;17.58;;
